Time;durP1;ratioP1;P1;durP2;ratioP2;P2;SDS_P1;SDS_P2;PMS_P1;PMS_P2;Temp;Humidity;BMP_temperature;BMP_pressure;BME280_temperature;BME280_humidity;BME280_pressure;Samples;Min_cycle;Max_cycle;Signal;HPM_P1;HPM_P2
2022/08/02 00:01:33;;;;;;;;;;;20.10;82.30;;;;;;5030996;28;19920;-77
2022/08/02 00:03:58;;;;;;;;;;;20.10;82.30;;;;;;5043524;28;19913;-77
2022/08/02 00:06:24;;;;;;;;;;;20.10;82.30;;;;;;5036418;28;20468;-77
2022/08/02 00:08:49;;;;;;;;;;;20.00;82.40;;;;;;5042790;28;19920;-77
2022/08/02 00:11:15;;;;;;;;;;;20.00;82.40;;;;;;5039219;28;19920;-77
2022/08/02 00:13:40;;;;;;;;;;;20.00;82.50;;;;;;5029624;28;19919;-77
2022/08/02 00:16:06;;;;;;;;;;;20.00;82.70;;;;;;5043122;28;19913;-77
2022/08/02 00:18:31;;;;;;;;;;;20.00;82.70;;;;;;5042769;28;19917;-77
2022/08/02 00:20:57;;;;;;;;;;;19.90;82.70;;;;;;5043030;28;19913;-77
2022/08/02 00:23:22;;;;;;;;;;;19.90;82.60;;;;;;5033578;28;19913;-77
2022/08/02 00:25:48;;;;;;;;;;;19.90;82.80;;;;;;5021943;28;19921;-77
2022/08/02 00:28:13;;;;;;;;;;;19.90;82.80;;;;;;5040703;28;19917;-77
2022/08/02 00:30:39;;;;;;;;;;;19.80;82.80;;;;;;5018363;28;20015;-77
2022/08/02 00:33:04;;;;;;;;;;;19.80;82.80;;;;;;5040550;28;19916;-77
2022/08/02 00:35:30;;;;;;;;;;;19.80;83.00;;;;;;5036778;28;20337;-77
2022/08/02 00:37:56;;;;;;;;;;;19.80;82.80;;;;;;5024179;28;19921;-77
2022/08/02 00:40:22;;;;;;;;;;;19.80;82.90;;;;;;5023947;28;20417;-77
2022/08/02 00:42:59;;;;;;;;;;;19.80;82.80;;;;;;5030356;28;19917;-76
2022/08/02 00:45:25;;;;;;;;;;;19.80;82.80;;;;;;5020483;28;19921;-77
2022/08/02 00:47:50;;;;;;;;;;;19.70;82.80;;;;;;5019119;28;19913;-77
2022/08/02 00:50:18;;;;;;;;;;;19.70;82.80;;;;;;5022982;28;21422;-77
2022/08/02 00:52:43;;;;;;;;;;;19.70;82.80;;;;;;5024486;28;19909;-77
2022/08/02 00:55:09;;;;;;;;;;;19.70;82.80;;;;;;5030835;28;19954;-77
2022/08/02 00:57:34;;;;;;;;;;;19.70;83.00;;;;;;5017100;28;20395;-77
2022/08/02 01:00:00;;;;;;;;;;;19.70;82.80;;;;;;5006077;28;19917;-77
2022/08/02 01:02:25;;;;;;;;;;;19.60;82.90;;;;;;5013600;28;19924;-78
2022/08/02 01:04:51;;;;;;;;;;;19.60;83.50;;;;;;5024062;28;19912;-77
2022/08/02 01:07:17;;;;;;;;;;;19.60;83.00;;;;;;5036019;28;19913;-77
2022/08/02 01:09:43;;;;;;;;;;;19.60;83.00;;;;;;5038844;28;19920;-78
2022/08/02 01:12:09;;;;;;;;;;;19.60;83.00;;;;;;5042328;28;19947;-77
2022/08/02 01:14:34;;;;;;;;;;;19.60;83.00;;;;;;5033688;28;19952;-77
2022/08/02 01:17:09;;;;;;;;;;;19.50;83.00;;;;;;5026094;28;20634;-77
2022/08/02 01:19:50;;;;;;;;;;;19.50;83.00;;;;;;5030773;28;20385;-77
2022/08/02 01:22:15;;;;;;;;;;;19.50;83.00;;;;;;5030115;28;19987;-77
2022/08/02 01:24:47;;;;;;;;;;;19.50;83.60;;;;;;5041332;28;19917;-77
2022/08/02 01:27:19;;;;;;;;;;;19.50;83.10;;;;;;5038240;28;19920;-77
2022/08/02 01:29:50;;;;;;;;;;;19.50;83.10;;;;;;5008198;28;20043;-77
2022/08/02 01:32:17;;;;;;;;;;;19.50;83.20;;;;;;5022659;28;19924;-77
2022/08/02 01:34:50;;;;;;;;;;;19.40;83.10;;;;;;5029501;28;20281;-77
2022/08/02 01:37:15;;;;;;;;;;;19.40;83.10;;;;;;5014982;28;19913;-77
2022/08/02 01:39:42;;;;;;;;;;;19.40;83.00;;;;;;5023519;28;19917;-77
2022/08/02 01:42:07;;;;;;;;;;;19.40;83.10;;;;;;5039616;28;19909;-77
2022/08/02 01:44:34;;;;;;;;;;;19.40;83.10;;;;;;5009869;28;19919;-77
2022/08/02 01:47:03;;;;;;;;;;;19.30;83.10;;;;;;5024562;28;20000;-77
2022/08/02 01:49:29;;;;;;;;;;;19.30;83.20;;;;;;5017374;28;19923;-77
2022/08/02 01:54:42;;;;;;;;;;;19.30;83.10;;;;;;5030697;28;20472;-77
2022/08/02 01:57:09;;;;;;;;;;;19.30;83.20;;;;;;5034002;28;19909;-77
2022/08/02 01:59:35;;;;;;;;;;;19.30;83.10;;;;;;5030843;28;19921;-77
2022/08/02 02:02:01;;;;;;;;;;;19.30;83.20;;;;;;5029071;28;19919;-77
2022/08/02 02:04:27;;;;;;;;;;;19.30;83.20;;;;;;5006546;28;19960;-77
2022/08/02 02:06:54;;;;;;;;;;;19.20;83.20;;;;;;5029177;28;19913;-77
2022/08/02 02:09:20;;;;;;;;;;;19.20;83.30;;;;;;5030012;28;19920;-77
2022/08/02 02:11:47;;;;;;;;;;;19.20;83.20;;;;;;5021477;28;19973;-77
2022/08/02 02:14:13;;;;;;;;;;;19.20;83.30;;;;;;5040698;28;19913;-77
2022/08/02 02:16:41;;;;;;;;;;;19.20;83.30;;;;;;5029043;28;19921;-77
2022/08/02 02:19:08;;;;;;;;;;;19.20;83.30;;;;;;5022038;28;20004;-77
2022/08/02 02:21:33;;;;;;;;;;;19.10;83.40;;;;;;5011380;28;20426;-77
2022/08/02 02:23:59;;;;;;;;;;;19.10;83.30;;;;;;5026109;28;19913;-77
2022/08/02 02:26:26;;;;;;;;;;;19.10;83.40;;;;;;5035007;28;20012;-77
2022/08/02 02:28:53;;;;;;;;;;;19.10;83.40;;;;;;5028868;28;19922;-77
2022/08/02 02:31:19;;;;;;;;;;;19.10;83.50;;;;;;5033272;28;19954;-77
2022/08/02 02:33:49;;;;;;;;;;;19.00;83.40;;;;;;5029450;28;19908;-77
2022/08/02 02:36:16;;;;;;;;;;;19.10;83.50;;;;;;5022128;28;19916;-77
2022/08/02 02:38:42;;;;;;;;;;;19.00;83.50;;;;;;5024292;28;20004;-77
2022/08/02 02:41:08;;;;;;;;;;;19.00;83.40;;;;;;5027028;28;19921;-77
2022/08/02 02:43:35;;;;;;;;;;;19.00;83.50;;;;;;5025801;28;19910;-77
2022/08/02 02:46:04;;;;;;;;;;;19.00;83.50;;;;;;5031919;28;20008;-77
2022/08/02 02:48:29;;;;;;;;;;;19.00;83.50;;;;;;5010890;28;20566;-77
2022/08/02 02:50:56;;;;;;;;;;;18.90;83.50;;;;;;5029500;28;19944;-77
2022/08/02 02:53:22;;;;;;;;;;;18.90;83.50;;;;;;5022187;28;20346;-77
2022/08/02 02:55:48;;;;;;;;;;;18.90;83.50;;;;;;5012390;28;19913;-77
2022/08/02 02:58:14;;;;;;;;;;;18.90;83.50;;;;;;5034418;28;19917;-77
2022/08/02 03:03:23;;;;;;;;;;;18.90;83.40;;;;;;5028213;28;20320;-77
2022/08/02 03:05:49;;;;;;;;;;;18.90;83.50;;;;;;5039162;28;19913;-77
2022/08/02 03:08:14;;;;;;;;;;;18.90;83.50;;;;;;5010341;28;19910;-77
2022/08/02 03:10:41;;;;;;;;;;;18.80;83.50;;;;;;5026885;28;19913;-78
2022/08/02 03:13:07;;;;;;;;;;;18.80;83.50;;;;;;5021265;28;19962;-77
2022/08/02 03:15:33;;;;;;;;;;;18.80;83.70;;;;;;5015897;28;19970;-77
2022/08/02 03:17:58;;;;;;;;;;;18.80;83.60;;;;;;5021489;28;19913;-77
2022/08/02 03:20:24;;;;;;;;;;;18.80;83.50;;;;;;5021723;28;19940;-77
2022/08/02 03:22:49;;;;;;;;;;;18.80;83.60;;;;;;5021217;28;19913;-77
2022/08/02 03:25:16;;;;;;;;;;;18.70;83.60;;;;;;5032974;28;20285;-78
2022/08/02 03:27:43;;;;;;;;;;;18.70;83.60;;;;;;5019575;28;20352;-77
2022/08/02 03:30:10;;;;;;;;;;;18.70;83.60;;;;;;5032208;28;19927;-77
2022/08/02 03:32:37;;;;;;;;;;;18.70;83.60;;;;;;5034077;28;20482;-77
2022/08/02 03:35:04;;;;;;;;;;;18.70;83.70;;;;;;5038549;28;19913;-77
2022/08/02 03:37:30;;;;;;;;;;;18.70;83.70;;;;;;5026635;28;19921;-77
2022/08/02 03:39:57;;;;;;;;;;;18.60;83.60;;;;;;5005912;28;19929;-77
2022/08/02 03:42:23;;;;;;;;;;;18.70;83.70;;;;;;5027813;28;19913;-77
2022/08/02 03:44:49;;;;;;;;;;;18.60;83.60;;;;;;5028538;28;19964;-77
2022/08/02 03:47:15;;;;;;;;;;;18.60;83.60;;;;;;5027699;28;19947;-77
2022/08/02 03:49:41;;;;;;;;;;;18.60;83.60;;;;;;5027387;28;19913;-77
2022/08/02 03:52:06;;;;;;;;;;;18.60;83.60;;;;;;5035460;28;19953;-77
2022/08/02 03:54:32;;;;;;;;;;;18.60;83.60;;;;;;5010653;28;20598;-77
2022/08/02 03:56:57;;;;;;;;;;;18.60;83.70;;;;;;5025725;28;19912;-77
2022/08/02 03:59:23;;;;;;;;;;;18.50;83.60;;;;;;5020578;28;20427;-77
2022/08/02 04:01:48;;;;;;;;;;;18.50;83.60;;;;;;5044661;28;19951;-78
2022/08/02 04:04:14;;;;;;;;;;;18.50;83.60;;;;;;5037236;28;19945;-77
2022/08/02 04:06:39;;;;;;;;;;;18.50;83.70;;;;;;5033920;28;19920;-78
2022/08/02 04:09:05;;;;;;;;;;;18.50;83.60;;;;;;5034142;28;20028;-77
2022/08/02 04:11:31;;;;;;;;;;;18.50;83.70;;;;;;5005142;28;19939;-77
2022/08/02 04:13:57;;;;;;;;;;;18.50;83.60;;;;;;5027213;28;19914;-77
2022/08/02 04:16:28;;;;;;;;;;;18.50;83.70;;;;;;5006390;28;19913;-78
2022/08/02 04:18:59;;;;;;;;;;;18.50;83.60;;;;;;5023608;28;20760;-77
2022/08/02 04:21:27;;;;;;;;;;;18.40;83.60;;;;;;5022983;28;20397;-77
2022/08/02 04:23:53;;;;;;;;;;;18.50;83.70;;;;;;5043227;28;19913;-77
2022/08/02 04:26:19;;;;;;;;;;;18.40;83.60;;;;;;5035689;28;19961;-77
2022/08/02 04:28:45;;;;;;;;;;;18.40;83.70;;;;;;5030291;28;19945;-78
2022/08/02 04:31:10;;;;;;;;;;;18.40;83.60;;;;;;5038761;28;20641;-77
2022/08/02 04:33:36;;;;;;;;;;;18.40;83.70;;;;;;5012112;28;20859;-77
2022/08/02 04:36:03;;;;;;;;;;;18.40;83.60;;;;;;5026498;28;19940;-77
2022/08/02 04:38:29;;;;;;;;;;;18.40;83.70;;;;;;5031506;28;20461;-78
2022/08/02 04:40:55;;;;;;;;;;;18.40;83.60;;;;;;5013322;28;19999;-78
2022/08/02 04:43:21;;;;;;;;;;;18.40;83.80;;;;;;5021308;28;19913;-77
2022/08/02 04:45:53;;;;;;;;;;;18.40;83.60;;;;;;5050351;28;19932;-77
2022/08/02 04:48:19;;;;;;;;;;;18.40;83.70;;;;;;5015156;28;19913;-77
2022/08/02 04:50:45;;;;;;;;;;;18.40;83.80;;;;;;5030880;28;20528;-77
2022/08/02 04:53:11;;;;;;;;;;;18.40;83.70;;;;;;5030283;28;19918;-77
2022/08/02 04:55:36;;;;;;;;;;;18.40;83.70;;;;;;5012297;28;19917;-78
2022/08/02 04:58:02;;;;;;;;;;;18.40;83.70;;;;;;5031464;28;19953;-77
2022/08/02 05:00:27;;;;;;;;;;;18.40;83.80;;;;;;5041216;28;19952;-78
2022/08/02 05:02:56;;;;;;;;;;;18.40;83.80;;;;;;5040609;28;19912;-78
2022/08/02 05:05:21;;;;;;;;;;;18.30;83.70;;;;;;5030276;28;20587;-77
2022/08/02 05:07:47;;;;;;;;;;;18.40;83.90;;;;;;5012414;28;20020;-77
2022/08/02 05:10:13;;;;;;;;;;;18.40;83.80;;;;;;5035445;28;19913;-77
2022/08/02 05:12:39;;;;;;;;;;;18.40;83.80;;;;;;5036471;28;20308;-78
2022/08/02 05:15:04;;;;;;;;;;;18.30;83.80;;;;;;5020824;28;20041;-77
2022/08/02 05:17:30;;;;;;;;;;;18.40;83.80;;;;;;5027038;28;19917;-77
2022/08/02 05:19:56;;;;;;;;;;;18.30;83.80;;;;;;5035135;28;20604;-78
2022/08/02 05:22:22;;;;;;;;;;;18.30;83.60;;;;;;5028665;28;19936;-78
2022/08/02 05:24:47;;;;;;;;;;;18.30;83.80;;;;;;5030668;28;20261;-77
2022/08/02 05:27:13;;;;;;;;;;;18.30;83.70;;;;;;5023431;28;19965;-77
2022/08/02 05:29:38;;;;;;;;;;;18.40;83.80;;;;;;5032574;28;19924;-78
2022/08/02 05:32:04;;;;;;;;;;;18.30;83.80;;;;;;5014459;28;20017;-77
2022/08/02 05:34:29;;;;;;;;;;;18.30;83.80;;;;;;5036427;28;19965;-77
2022/08/02 05:36:55;;;;;;;;;;;18.30;83.70;;;;;;5052387;27;19913;-77
2022/08/02 05:39:20;;;;;;;;;;;18.40;83.80;;;;;;5024955;28;19947;-77
2022/08/02 05:41:46;;;;;;;;;;;18.30;83.80;;;;;;5033636;28;19920;-77
2022/08/02 05:44:11;;;;;;;;;;;18.30;83.80;;;;;;5004228;28;19917;-77
2022/08/02 05:46:37;;;;;;;;;;;18.30;83.60;;;;;;5034404;28;19921;-77
2022/08/02 05:49:03;;;;;;;;;;;18.30;83.80;;;;;;5051202;27;19913;-77
2022/08/02 05:51:34;;;;;;;;;;;18.30;83.80;;;;;;5036427;28;20020;-77
2022/08/02 05:54:06;;;;;;;;;;;18.30;83.80;;;;;;5018201;28;19913;-78
2022/08/02 05:56:33;;;;;;;;;;;18.30;83.80;;;;;;5011864;28;20469;-77
2022/08/02 05:59:04;;;;;;;;;;;18.30;83.70;;;;;;5011800;28;19999;-78
2022/08/02 06:01:35;;;;;;;;;;;18.30;83.70;;;;;;5024705;28;20273;-78
2022/08/02 06:04:04;;;;;;;;;;;18.30;83.80;;;;;;5035413;28;19910;-77
2022/08/02 06:06:31;;;;;;;;;;;18.40;83.70;;;;;;5028303;28;19928;-77
2022/08/02 06:09:22;;;;;;;;;;;18.40;83.80;;;;;;5017481;28;19917;-78
2022/08/02 06:11:50;;;;;;;;;;;18.40;83.80;;;;;;5021648;28;19917;-78
2022/08/02 06:14:16;;;;;;;;;;;18.40;83.80;;;;;;5033060;28;19913;-77
2022/08/02 06:16:43;;;;;;;;;;;18.40;83.70;;;;;;5034733;28;19913;-77
2022/08/02 06:19:10;;;;;;;;;;;18.40;83.60;;;;;;5034017;28;20722;-78
2022/08/02 06:21:37;;;;;;;;;;;18.40;83.60;;;;;;5028511;28;19921;-78
2022/08/02 06:24:04;;;;;;;;;;;18.50;83.60;;;;;;5033845;28;20009;-77
2022/08/02 06:26:30;;;;;;;;;;;18.50;83.60;;;;;;5029390;28;19920;-78
2022/08/02 06:28:56;;;;;;;;;;;18.50;83.50;;;;;;5036199;28;19970;-77
2022/08/02 06:31:22;;;;;;;;;;;18.50;83.40;;;;;;5022827;28;19914;-77
2022/08/02 06:33:47;;;;;;;;;;;18.50;83.40;;;;;;5021828;28;19913;-77
2022/08/02 06:36:28;;;;;;;;;;;18.60;83.40;;;;;;5020719;28;19917;-77
2022/08/02 06:39:16;;;;;;;;;;;18.60;83.30;;;;;;5031999;28;19917;-77
2022/08/02 06:41:43;;;;;;;;;;;18.60;83.30;;;;;;5016927;28;19954;-77
2022/08/02 06:44:08;;;;;;;;;;;18.60;83.20;;;;;;5030402;28;19928;-77
2022/08/02 06:46:34;;;;;;;;;;;18.70;83.20;;;;;;5021279;28;20679;-78
2022/08/02 06:49:00;;;;;;;;;;;18.70;83.10;;;;;;5045419;28;19917;-77
2022/08/02 06:51:26;;;;;;;;;;;18.70;83.00;;;;;;5041286;28;19917;-77
2022/08/02 06:53:51;;;;;;;;;;;18.70;82.90;;;;;;5034440;28;19992;-77
2022/08/02 06:56:18;;;;;;;;;;;18.80;82.80;;;;;;5028319;28;19940;-77
2022/08/02 06:58:43;;;;;;;;;;;18.80;82.80;;;;;;5046638;28;20329;-77
2022/08/02 07:01:09;;;;;;;;;;;18.80;82.70;;;;;;5028819;28;19913;-77
2022/08/02 07:03:36;;;;;;;;;;;18.80;82.60;;;;;;5029133;28;19914;-77
2022/08/02 07:06:01;;;;;;;;;;;18.80;82.60;;;;;;5026632;28;19917;-77
2022/08/02 07:08:31;;;;;;;;;;;18.90;82.60;;;;;;5030351;28;20341;-77
2022/08/02 07:11:02;;;;;;;;;;;18.90;82.40;;;;;;5021834;28;19994;-77
2022/08/02 07:13:28;;;;;;;;;;;19.00;82.30;;;;;;5041679;28;20001;-77
2022/08/02 07:15:54;;;;;;;;;;;19.00;82.30;;;;;;5013432;28;19954;-77
2022/08/02 07:18:19;;;;;;;;;;;19.00;82.20;;;;;;5004296;28;20515;-77
2022/08/02 07:20:45;;;;;;;;;;;19.00;82.10;;;;;;5022622;28;20635;-77
2022/08/02 07:23:11;;;;;;;;;;;19.10;82.00;;;;;;5031766;28;19931;-77
2022/08/02 07:25:36;;;;;;;;;;;19.00;82.00;;;;;;5040349;28;19912;-77
2022/08/02 07:28:03;;;;;;;;;;;19.00;81.80;;;;;;5039292;28;19913;-77
2022/08/02 07:30:29;;;;;;;;;;;19.10;81.80;;;;;;5022041;28;19917;-77
2022/08/02 07:32:54;;;;;;;;;;;19.10;81.70;;;;;;5027896;28;19913;-77
2022/08/02 07:35:20;;;;;;;;;;;19.10;81.60;;;;;;5025886;28;19920;-77
2022/08/02 07:37:47;;;;;;;;;;;19.20;81.60;;;;;;5003852;28;19921;-77
2022/08/02 07:40:13;;;;;;;;;;;19.20;81.50;;;;;;5004400;28;20012;-77
2022/08/02 07:42:39;;;;;;;;;;;19.20;81.30;;;;;;5034947;28;20003;-77
2022/08/02 07:45:05;;;;;;;;;;;19.30;81.30;;;;;;5030093;28;19921;-77
2022/08/02 07:47:30;;;;;;;;;;;19.30;81.40;;;;;;5028527;28;19917;-77
2022/08/02 07:49:56;;;;;;;;;;;19.30;81.30;;;;;;5021860;28;19966;-77
2022/08/02 07:52:21;;;;;;;;;;;19.30;81.50;;;;;;5034366;28;20268;-77
2022/08/02 07:54:47;;;;;;;;;;;19.40;81.20;;;;;;5034784;28;19950;-77
2022/08/02 07:57:12;;;;;;;;;;;19.40;81.10;;;;;;5000194;28;19917;-77
2022/08/02 07:59:38;;;;;;;;;;;19.40;81.10;;;;;;5022656;28;20007;-77
2022/08/02 08:02:04;;;;;;;;;;;19.50;81.00;;;;;;5025556;28;19954;-77
2022/08/02 08:04:29;;;;;;;;;;;19.50;81.20;;;;;;5031168;28;19935;-77
2022/08/02 08:06:55;;;;;;;;;;;19.50;81.20;;;;;;5036875;28;19999;-77
2022/08/02 08:09:21;;;;;;;;;;;19.50;80.90;;;;;;5042687;28;19944;-77
2022/08/02 08:11:46;;;;;;;;;;;19.60;81.00;;;;;;5025476;28;19917;-77
2022/08/02 08:14:12;;;;;;;;;;;19.60;80.80;;;;;;5034768;28;19936;-77
2022/08/02 08:16:37;;;;;;;;;;;19.60;81.00;;;;;;5026418;28;19914;-77
2022/08/02 08:19:03;;;;;;;;;;;19.70;80.70;;;;;;5025010;28;19924;-77
2022/08/02 08:21:28;;;;;;;;;;;19.70;80.40;;;;;;5040351;28;19920;-77
2022/08/02 08:23:54;;;;;;;;;;;19.70;80.20;;;;;;5058607;28;19928;-77
2022/08/02 08:26:20;;;;;;;;;;;19.80;80.10;;;;;;5037148;28;19913;-76
2022/08/02 08:28:45;;;;;;;;;;;19.80;80.00;;;;;;5034402;28;19913;-77
2022/08/02 08:31:11;;;;;;;;;;;19.80;80.30;;;;;;5006567;28;19962;-77
2022/08/02 08:33:36;;;;;;;;;;;19.90;79.80;;;;;;5024469;28;19970;-77
2022/08/02 08:36:03;;;;;;;;;;;19.90;79.80;;;;;;5006631;28;20109;-76
2022/08/02 08:38:28;;;;;;;;;;;20.00;79.70;;;;;;5007457;28;19920;-76
2022/08/02 08:40:54;;;;;;;;;;;20.00;80.10;;;;;;5030557;28;20443;-76
2022/08/02 08:43:20;;;;;;;;;;;20.10;79.40;;;;;;5038959;28;20448;-77
2022/08/02 08:45:46;;;;;;;;;;;20.10;79.60;;;;;;5024301;28;19921;-77
2022/08/02 08:48:14;;;;;;;;;;;20.20;79.60;;;;;;5008058;28;20692;-77
2022/08/02 08:51:03;;;;;;;;;;;20.20;79.20;;;;;;5030589;28;20425;-77
2022/08/02 08:53:30;;;;;;;;;;;20.20;79.00;;;;;;5006377;28;19939;-76
2022/08/02 08:55:57;;;;;;;;;;;20.30;78.90;;;;;;5033247;28;19917;-77
2022/08/02 08:58:22;;;;;;;;;;;20.30;78.60;;;;;;5018133;28;19917;-77
2022/08/02 09:00:48;;;;;;;;;;;20.40;78.50;;;;;;5032590;28;19913;-77
2022/08/02 09:03:13;;;;;;;;;;;20.40;78.40;;;;;;5039667;28;19921;-77
2022/08/02 09:05:40;;;;;;;;;;;20.50;78.30;;;;;;5036152;28;20008;-77
2022/08/02 09:08:06;;;;;;;;;;;20.50;78.20;;;;;;5021751;28;19917;-77
2022/08/02 09:10:34;;;;;;;;;;;20.60;78.10;;;;;;5014306;28;20682;-77
2022/08/02 09:13:12;;;;;;;;;;;20.60;78.20;;;;;;5011012;28;19912;-77
2022/08/02 09:15:39;;;;;;;;;;;20.60;78.10;;;;;;5025517;28;19960;-77
2022/08/02 09:18:05;;;;;;;;;;;20.70;78.00;;;;;;5004879;28;20384;-78
2022/08/02 09:20:51;;;;;;;;;;;20.70;77.90;;;;;;5004951;28;19917;-77
2022/08/02 09:23:17;;;;;;;;;;;20.80;77.90;;;;;;5005277;28;19924;-78
2022/08/02 09:25:53;;;;;;;;;;;20.80;77.80;;;;;;5023088;28;20440;-77
2022/08/02 09:28:19;;;;;;;;;;;20.80;77.90;;;;;;5017923;28;19910;-77
2022/08/02 09:30:45;;;;;;;;;;;20.90;77.80;;;;;;5023155;28;19913;-77
2022/08/02 09:33:10;;;;;;;;;;;20.90;77.80;;;;;;5031494;28;19916;-77
2022/08/02 09:35:38;;;;;;;;;;;21.00;77.70;;;;;;5023297;28;20611;-78
2022/08/02 09:38:13;;;;;;;;;;;21.00;77.60;;;;;;5036653;28;20053;-77
2022/08/02 09:40:39;;;;;;;;;;;21.10;77.40;;;;;;5024029;28;19924;-76
2022/08/02 09:43:06;;;;;;;;;;;21.10;78.00;;;;;;5003477;28;19915;-77
2022/08/02 09:45:33;;;;;;;;;;;21.20;77.20;;;;;;5028843;28;19955;-77
2022/08/02 09:48:00;;;;;;;;;;;21.30;77.10;;;;;;5034335;28;19948;-77
2022/08/02 09:50:26;;;;;;;;;;;21.40;77.50;;;;;;5041742;28;19962;-77
2022/08/02 09:52:53;;;;;;;;;;;21.40;76.80;;;;;;5041994;28;19948;-77
2022/08/02 09:55:19;;;;;;;;;;;21.50;76.60;;;;;;5023864;28;19920;-77
2022/08/02 09:57:44;;;;;;;;;;;21.60;76.40;;;;;;5040074;28;19919;-76
2022/08/02 10:00:10;;;;;;;;;;;21.70;76.40;;;;;;5005588;28;19914;-76
2022/08/02 10:02:36;;;;;;;;;;;21.80;76.10;;;;;;5005533;28;20238;-77
2022/08/02 10:05:01;;;;;;;;;;;21.90;75.90;;;;;;5011723;28;19924;-77
2022/08/02 10:07:27;;;;;;;;;;;22.00;75.60;;;;;;5053166;28;19909;-77
2022/08/02 10:09:53;;;;;;;;;;;21.90;75.60;;;;;;5036707;28;19935;-77
2022/08/02 10:12:21;;;;;;;;;;;22.00;75.80;;;;;;5032103;28;19914;-77
2022/08/02 10:14:48;;;;;;;;;;;22.00;75.90;;;;;;5032470;28;19917;-77
2022/08/02 10:17:14;;;;;;;;;;;22.10;76.00;;;;;;5025530;28;19920;-78
2022/08/02 10:19:39;;;;;;;;;;;22.20;76.00;;;;;;5022728;28;19925;-77
2022/08/02 10:22:09;;;;;;;;;;;22.30;75.80;;;;;;5022751;28;20117;-77
2022/08/02 10:24:36;;;;;;;;;;;22.30;75.80;;;;;;5022758;28;19913;-77
2022/08/02 10:27:02;;;;;;;;;;;22.40;75.50;;;;;;5024322;28;19940;-77
2022/08/02 10:29:35;;;;;;;;;;;22.50;75.40;;;;;;5027460;28;19936;-77
2022/08/02 10:32:01;;;;;;;;;;;22.50;75.60;;;;;;5022194;28;19924;-77
2022/08/02 10:34:30;;;;;;;;;;;22.50;75.70;;;;;;5022712;28;20008;-77
2022/08/02 10:36:56;;;;;;;;;;;22.60;75.70;;;;;;5022522;28;19936;-77
2022/08/02 10:39:21;;;;;;;;;;;22.60;75.90;;;;;;5022676;28;20357;-77
2022/08/02 10:41:48;;;;;;;;;;;22.70;75.70;;;;;;5022550;28;19934;-77
2022/08/02 10:44:21;;;;;;;;;;;22.70;75.70;;;;;;5026966;28;19912;-76
2022/08/02 10:46:46;;;;;;;;;;;22.80;75.80;;;;;;5025510;28;19960;-77
2022/08/02 10:49:12;;;;;;;;;;;22.90;75.70;;;;;;5025665;28;19917;-78
2022/08/02 10:51:56;;;;;;;;;;;22.90;75.60;;;;;;5040820;28;19912;-77
2022/08/02 10:54:28;;;;;;;;;;;23.00;75.80;;;;;;5040637;28;20545;-78
2022/08/02 10:56:54;;;;;;;;;;;23.00;75.90;;;;;;5022573;28;19995;-77
2022/08/02 10:59:24;;;;;;;;;;;23.00;75.90;;;;;;5027082;28;19924;-78
2022/08/02 11:01:49;;;;;;;;;;;23.10;76.00;;;;;;5022357;28;19940;-77
2022/08/02 11:04:15;;;;;;;;;;;23.20;76.00;;;;;;5038564;28;20408;-77
2022/08/02 11:06:59;;;;;;;;;;;23.30;75.90;;;;;;5034376;28;19913;-77
2022/08/02 11:09:26;;;;;;;;;;;23.40;76.00;;;;;;5036233;28;19920;-77
2022/08/02 11:12:05;;;;;;;;;;;23.40;76.00;;;;;;5021963;28;19913;-78
2022/08/02 11:14:31;;;;;;;;;;;23.50;76.20;;;;;;5021404;28;19978;-76
2022/08/02 11:16:56;;;;;;;;;;;23.50;76.00;;;;;;5021575;28;20020;-77
2022/08/02 11:19:25;;;;;;;;;;;23.60;75.90;;;;;;5022012;28;20016;-77
2022/08/02 11:22:05;;;;;;;;;;;23.70;76.10;;;;;;5011747;28;19921;-77
2022/08/02 11:24:31;;;;;;;;;;;23.80;75.30;;;;;;5022175;28;19972;-77
2022/08/02 11:27:01;;;;;;;;;;;24.00;74.90;;;;;;5021936;28;19913;-76
2022/08/02 11:29:33;;;;;;;;;;;24.00;75.20;;;;;;5018153;28;20415;-77
2022/08/02 11:31:59;;;;;;;;;;;24.20;74.50;;;;;;5022481;28;20004;-77
2022/08/02 11:34:25;;;;;;;;;;;24.30;74.00;;;;;;5021984;28;19917;-76
2022/08/02 11:36:51;;;;;;;;;;;24.30;74.00;;;;;;5024808;28;20578;-76
2022/08/02 11:39:18;;;;;;;;;;;24.40;74.60;;;;;;5007838;28;19921;-76
2022/08/02 11:41:56;;;;;;;;;;;24.50;73.70;;;;;;5025355;28;19966;-76
2022/08/02 11:44:22;;;;;;;;;;;24.60;73.80;;;;;;5030442;28;20350;-76
2022/08/02 11:46:58;;;;;;;;;;;24.60;73.40;;;;;;5027929;28;19920;-77
2022/08/02 11:49:23;;;;;;;;;;;24.60;73.40;;;;;;5025658;28;19920;-76
2022/08/02 11:52:09;;;;;;;;;;;24.70;73.20;;;;;;5007501;28;19913;-77
2022/08/02 11:54:39;;;;;;;;;;;24.70;73.40;;;;;;5025328;28;20292;-77
2022/08/02 11:57:08;;;;;;;;;;;24.70;73.30;;;;;;5043489;28;19965;-77
2022/08/02 11:59:38;;;;;;;;;;;24.80;73.30;;;;;;5033757;28;19984;-77
2022/08/02 12:02:04;;;;;;;;;;;24.80;73.40;;;;;;5013571;28;19917;-77
2022/08/02 12:04:29;;;;;;;;;;;24.80;73.30;;;;;;5043155;28;19927;-77
2022/08/02 12:06:56;;;;;;;;;;;24.80;73.10;;;;;;5037365;28;19917;-77
2022/08/02 12:09:22;;;;;;;;;;;24.90;73.30;;;;;;5023843;28;20288;-77
2022/08/02 12:11:49;;;;;;;;;;;24.90;73.20;;;;;;5024089;28;19920;-77
2022/08/02 12:14:15;;;;;;;;;;;24.90;73.10;;;;;;5030870;28;19921;-78
2022/08/02 12:19:26;;;;;;;;;;;25.00;73.00;;;;;;5024435;28;20401;-77
2022/08/02 12:22:07;;;;;;;;;;;25.10;72.80;;;;;;5003227;28;19917;-76
2022/08/02 12:24:33;;;;;;;;;;;25.10;72.80;;;;;;5019933;28;19910;-77
2022/08/02 12:26:58;;;;;;;;;;;25.20;72.70;;;;;;5023436;28;19913;-77
2022/08/02 12:29:34;;;;;;;;;;;25.20;72.70;;;;;;5023146;28;19943;-77
2022/08/02 12:32:00;;;;;;;;;;;25.20;72.60;;;;;;5023201;28;20011;-77
2022/08/02 12:34:26;;;;;;;;;;;25.30;72.50;;;;;;5023513;28;20024;-76
2022/08/02 12:37:05;;;;;;;;;;;25.40;72.20;;;;;;5023845;28;19916;-77
2022/08/02 12:39:33;;;;;;;;;;;25.50;72.30;;;;;;5024652;28;20705;-77
2022/08/02 12:41:58;;;;;;;;;;;25.50;72.50;;;;;;5007109;28;19913;-77
2022/08/02 12:44:24;;;;;;;;;;;25.60;72.30;;;;;;5030487;28;19916;-77
2022/08/02 12:46:59;;;;;;;;;;;25.60;72.20;;;;;;5025222;28;19989;-77
2022/08/02 12:49:25;;;;;;;;;;;25.70;72.10;;;;;;5023880;28;19913;-77
2022/08/02 12:51:51;;;;;;;;;;;25.70;72.00;;;;;;5023379;28;19920;-77
2022/08/02 12:54:19;;;;;;;;;;;25.80;71.80;;;;;;5005906;28;19951;-77
2022/08/02 12:56:44;;;;;;;;;;;25.80;72.10;;;;;;5005497;28;19913;-77
2022/08/02 12:59:10;;;;;;;;;;;25.90;72.10;;;;;;5023622;28;19920;-77
2022/08/02 13:01:36;;;;;;;;;;;25.90;71.60;;;;;;5005753;28;19917;-77
2022/08/02 13:04:01;;;;;;;;;;;26.00;71.70;;;;;;5023549;28;19921;-77
2022/08/02 13:06:27;;;;;;;;;;;26.10;71.60;;;;;;5046225;28;20490;-77
2022/08/02 13:08:57;;;;;;;;;;;26.20;71.50;;;;;;5035920;28;20016;-77
2022/08/02 13:11:23;;;;;;;;;;;26.20;71.90;;;;;;5020172;28;20501;-77
2022/08/02 13:13:49;;;;;;;;;;;26.30;71.40;;;;;;5006338;28;20423;-76
2022/08/02 13:16:14;;;;;;;;;;;26.30;71.10;;;;;;5023720;28;19917;-77
2022/08/02 13:18:40;;;;;;;;;;;26.40;71.00;;;;;;5015478;28;19916;-76
2022/08/02 13:21:07;;;;;;;;;;;26.50;71.20;;;;;;5042080;28;19919;-77
2022/08/02 13:23:33;;;;;;;;;;;26.50;70.40;;;;;;5042140;28;19920;-77
2022/08/02 13:25:59;;;;;;;;;;;26.60;70.60;;;;;;5041841;28;19920;-77
2022/08/02 13:28:24;;;;;;;;;;;26.70;70.90;;;;;;5017829;28;19913;-77
2022/08/02 13:30:50;;;;;;;;;;;26.70;70.40;;;;;;5023597;28;19917;-76
2022/08/02 13:33:16;;;;;;;;;;;26.80;70.20;;;;;;5044591;28;19967;-77
2022/08/02 13:35:42;;;;;;;;;;;26.90;70.90;;;;;;5022566;28;20000;-76
2022/08/02 13:38:07;;;;;;;;;;;26.90;70.50;;;;;;5035320;28;20024;-76
2022/08/02 13:40:33;;;;;;;;;;;27.00;70.40;;;;;;5025274;28;19917;-76
2022/08/02 13:42:58;;;;;;;;;;;27.00;70.40;;;;;;5023219;28;20352;-76
2022/08/02 13:45:24;;;;;;;;;;;27.00;70.20;;;;;;5027839;28;20015;-76
2022/08/02 13:47:49;;;;;;;;;;;27.10;70.30;;;;;;5033959;28;20490;-77
2022/08/02 13:50:15;;;;;;;;;;;27.10;70.60;;;;;;5041865;28;20329;-76
2022/08/02 13:52:40;;;;;;;;;;;27.20;70.50;;;;;;5041386;28;20658;-77
2022/08/02 13:55:06;;;;;;;;;;;27.20;70.20;;;;;;5041564;28;20654;-77
2022/08/02 13:57:32;;;;;;;;;;;27.30;70.90;;;;;;5022884;28;19912;-77
2022/08/02 13:59:57;;;;;;;;;;;27.30;70.10;;;;;;5023347;28;20012;-76
2022/08/02 14:02:23;;;;;;;;;;;27.40;70.30;;;;;;5022318;28;20326;-77
2022/08/02 14:04:48;;;;;;;;;;;27.40;70.60;;;;;;5023008;28;19917;-77
2022/08/02 14:07:14;;;;;;;;;;;27.50;69.40;;;;;;5037148;28;19913;-76
2022/08/02 14:09:40;;;;;;;;;;;27.50;70.40;;;;;;5032046;28;20657;-76
2022/08/02 14:12:08;;;;;;;;;;;27.50;70.50;;;;;;5022818;28;19959;-75
2022/08/02 14:14:33;;;;;;;;;;;27.60;70.30;;;;;;5005138;28;19920;-75
2022/08/02 14:16:59;;;;;;;;;;;27.70;70.10;;;;;;5022666;28;19913;-76
2022/08/02 14:19:24;;;;;;;;;;;27.70;69.60;;;;;;5011089;28;19925;-76
2022/08/02 14:21:50;;;;;;;;;;;27.70;69.10;;;;;;5035604;28;19917;-77
2022/08/02 14:24:16;;;;;;;;;;;27.80;69.00;;;;;;5041118;28;20025;-76